This is the latest recevied weather packets stored in our database for station/object KJ5JYX. If no packets are shown the sender has not sent any weather packets the latest 1 day(s).
| Time | Temp. | Humidity | Pressure | Rain* | Wind** | Luminosity | Snow |
|---|---|---|---|---|---|---|---|
| 1778112148 | 17.22° C | 87% | 1014.5 hPa | 0 mm | - | 31 W/m² | - |
| 1778110329 | 17.22° C | 86% | 1014.3 hPa | 0 mm | - | 80 W/m² | - |
| 1778108206 | 17.22° C | 87% | 1014.5 hPa | 0 mm | - | 60 W/m² | - |
| 1778107296 | 17.22° C | 87% | 1014.4 hPa | 0 mm | - | 84 W/m² | - |
| 1778104869 | 16.67° C | 87% | 1013.9 hPa | 0 mm | - | 110 W/m² | - |
| 1778104566 | 16.67° C | 86% | 1014.2 hPa | 0 mm | - | 109 W/m² | - |
| 1778103656 | 16.11° C | 87% | 1014.3 hPa | 0 mm | - | 110 W/m² | - |
| 1778103354 | 16.11° C | 88% | 1014.3 hPa | 0 mm | - | 120 W/m² | - |
| 1778103051 | 16.11° C | 89% | 1014.4 hPa | 0 mm | - | 127 W/m² | - |
| 1778101836 | 16.11° C | 89% | 1014.5 hPa | 0 mm | - | 87 W/m² | - |
| 1778100016 | 15.56° C | 90% | 1014.8 hPa | 0 mm | - | 88 W/m² | - |
| 1778098502 | 15.56° C | 90% | 1014.5 hPa | 0 mm | - | 70 W/m² | - |
| 1778098198 | 15.56° C | 90% | 1014.7 hPa | 0 mm | - | 127 W/m² | - |
| 1778097591 | 15.56° C | 90% | 1015 hPa | 0 mm | - | 81 W/m² | - |
| 1778096076 | 15.56° C | 90% | 1014.9 hPa | 0 mm | - | 125 W/m² | - |
| 1778092436 | 15° C | 96% | 1014.9 hPa | 0 mm | - | 90 W/m² | - |
| 1778092134 | 15° C | 96% | 1015.1 hPa | 0 mm | - | 70 W/m² | - |
| 1778091831 | 15° C | 97% | 1015.2 hPa | 0 mm | - | 76 W/m² | - |
| 1778091226 | 15° C | 98% | 1015 hPa | 0 mm | - | 91 W/m² | - |
| 1778090923 | 15° C | 98% | 1015.1 hPa | 0 mm | - | 115 W/m² | - |
| 1778089407 | 15.56° C | 97% | 1015 hPa | 0 mm | - | 50 W/m² | - |
| 1778086682 | 16.11° C | 99% | 1014.1 hPa | 0 mm | - | 199 W/m² | - |
| 1778086379 | 16.11° C | 99% | 1014.1 hPa | 0 mm | - | 296 W/m² | - |
| 1778085164 | 16.67° C | 99% | 1013.4 hPa | 1.27 mm | - | 271 W/m² | - |
| 1778084255 | 15.56° C | 99% | 1012.6 hPa | 0 mm | - | 657 W/m² | - |
* Rain latest hour (hover to see other rain measurements)
** Current wind speed in m/s (hover to see current wind gust speed)